Time;durP1;ratioP1;P1;durP2;ratioP2;P2;SDS_P1;SDS_P2;PMS_P1;PMS_P2;Temp;Humidity;BMP_temperature;BMP_pressure;BME280_temperature;BME280_humidity;BME280_pressure;Samples;Min_cycle;Max_cycle;Signal;HPM_P1;HPM_P2
2021/12/28 00:01:15;;;;;;;15.87;15.37;;;21.40;58.20;;;;;;5023277;28;20902;-49
2021/12/28 00:03:43;;;;;;;15.70;15.20;;;21.40;58.40;;;;;;5022888;28;21021;-47
2021/12/28 00:06:11;;;;;;;15.87;15.27;;;21.40;58.60;;;;;;5022744;28;20809;-48
2021/12/28 00:08:40;;;;;;;15.37;14.87;;;21.30;58.60;;;;;;5022720;28;20845;-53
2021/12/28 00:11:07;;;;;;;15.87;15.27;;;21.30;58.80;;;;;;5022727;28;20453;-52
2021/12/28 00:13:34;;;;;;;15.87;15.30;;;21.20;59.20;;;;;;5022648;28;20530;-51
2021/12/28 00:16:23;;;;;;;15.10;14.60;;;21.10;59.40;;;;;;5022703;28;20903;-54
2021/12/28 00:18:49;;;;;;;15.77;15.27;;;21.10;59.80;;;;;;5022521;28;20919;-53
2021/12/28 00:21:16;;;;;;;15.10;14.60;;;21.10;59.90;;;;;;5022619;28;20532;-53
2021/12/28 00:23:44;;;;;;;16.03;15.43;;;21.00;60.00;;;;;;5022563;28;20452;-58
2021/12/28 00:26:14;;;;;;;15.00;14.50;;;21.00;60.30;;;;;;5022560;28;20799;-50
2021/12/28 00:28:42;;;;;;;15.87;15.37;;;21.00;60.80;;;;;;5022154;28;20472;-47
2021/12/28 00:31:11;;;;;;;16.30;15.70;;;20.90;61.00;;;;;;5022268;28;20555;-58
2021/12/28 00:33:38;;;;;;;15.10;14.60;;;21.00;62.60;;;;;;5022266;28;21045;-57
2021/12/28 00:36:05;;;;;;;16.07;14.90;;;20.90;62.50;;;;;;5021146;28;20473;-52
2021/12/28 00:38:33;;;;;;;15.40;14.90;;;21.10;63.20;;;;;;5022332;28;20556;-54
2021/12/28 00:41:03;;;;;;;14.97;14.37;;;21.40;62.90;;;;;;5022295;28;20966;-52
2021/12/28 00:43:31;;;;;;;15.10;14.60;;;21.80;62.00;;;;;;5022215;28;20449;-54
2021/12/28 00:45:58;;;;;;;15.10;14.60;;;22.20;60.80;;;;;;5022211;28;20546;-55
2021/12/28 00:48:25;;;;;;;15.13;14.60;;;22.50;59.40;;;;;;5021928;28;20484;-58
2021/12/28 00:50:52;;;;;;;14.60;14.10;;;22.70;59.10;;;;;;5022150;28;20480;-57
2021/12/28 00:53:19;;;;;;;14.00;13.50;;;22.90;58.00;;;;;;5021130;28;20451;-52
2021/12/28 00:55:46;;;;;;;15.57;15.07;;;22.90;57.40;;;;;;5021918;28;20195;-57
2021/12/28 00:58:14;;;;;;;14.80;14.10;;;22.90;55.70;;;;;;5020909;28;20742;-51
2021/12/28 01:00:41;;;;;;;15.83;15.33;;;23.00;55.50;;;;;;5022055;28;20209;-55
2021/12/28 01:03:10;;;;;;;16.00;15.50;;;23.10;55.10;;;;;;5021475;28;20483;-58
2021/12/28 01:05:39;;;;;;;15.37;14.80;;;23.10;54.70;;;;;;5021879;28;20464;-50
2021/12/28 01:08:06;;;;;;;16.03;15.43;;;23.10;54.50;;;;;;5021420;28;20484;-54
2021/12/28 01:10:35;;;;;;;15.80;15.20;;;23.00;54.30;;;;;;5021200;28;21113;-51
2021/12/28 01:13:03;;;;;;;15.53;14.93;;;23.00;54.10;;;;;;5021252;28;20453;-57
2021/12/28 01:15:31;;;;;;;15.43;14.83;;;22.90;54.10;;;;;;5021449;28;20449;-54
2021/12/28 01:17:58;;;;;;;16.07;15.30;;;22.90;54.30;;;;;;5021352;28;20488;-48
2021/12/28 01:20:25;;;;;;;15.80;15.20;;;22.90;54.10;;;;;;5021318;28;20449;-51
2021/12/28 01:22:53;;;;;;;16.03;15.40;;;22.90;54.10;;;;;;5021459;28;20829;-56
2021/12/28 01:25:20;;;;;;;15.20;14.70;;;22.90;54.30;;;;;;5021517;28;20453;-56
2021/12/28 01:27:47;;;;;;;15.77;15.27;;;23.20;54.10;;;;;;5021456;28;21364;-58
2021/12/28 01:30:17;;;;;;;14.77;14.30;;;23.20;53.50;;;;;;5021183;28;20487;-57
2021/12/28 01:32:45;;;;;;;15.77;15.27;;;23.30;53.20;;;;;;5021076;28;20861;-58
2021/12/28 01:35:14;;;;;;;15.67;15.07;;;23.30;53.00;;;;;;5021298;28;20448;-56
2021/12/28 01:37:42;;;;;;;16.00;15.40;;;23.30;53.10;;;;;;5021037;28;20477;-54
2021/12/28 01:40:13;;;;;;;15.80;15.30;;;23.30;52.80;;;;;;5021254;28;20454;-51
2021/12/28 01:43:06;;;;;;;16.70;16.00;;;23.30;52.60;;;;;;5021005;28;20458;-49
2021/12/28 01:45:40;;;;;;;17.87;16.60;;;23.10;51.10;;;;;;5020869;28;20453;-53
2021/12/28 01:48:09;;;;;;;18.53;17.30;;;22.90;50.30;;;;;;5028857;28;20834;-52
2021/12/28 01:50:37;;;;;;;17.20;16.10;;;22.70;50.50;;;;;;5032411;28;20481;-51
2021/12/28 01:53:05;;;;;;;16.40;15.60;;;22.50;50.70;;;;;;5032654;28;20453;-55
2021/12/28 01:55:32;;;;;;;17.47;16.17;;;22.40;51.10;;;;;;5032606;28;20445;-51
2021/12/28 01:57:59;;;;;;;16.17;15.47;;;22.50;51.40;;;;;;5032701;28;20469;-49
2021/12/28 02:00:26;;;;;;;17.50;16.70;;;22.80;51.30;;;;;;5032434;28;20442;-49
2021/12/28 02:02:53;;;;;;;17.37;16.63;;;22.90;50.60;;;;;;5032398;28;20441;-49
2021/12/28 02:05:21;;;;;;;17.20;16.17;;;23.10;50.40;;;;;;5032593;28;20452;-51
2021/12/28 02:07:48;;;;;;;17.60;16.70;;;23.00;50.10;;;;;;5059662;22;20962;-48
2021/12/28 02:10:15;;;;;;;17.67;16.70;;;23.00;50.20;;;;;;5047913;28;20472;-47
2021/12/28 02:12:42;;;;;;;17.37;16.47;;;23.00;50.30;;;;;;5052189;28;20454;-48
2021/12/28 02:15:13;;;;;;;17.23;16.53;;;23.10;50.40;;;;;;5052436;28;20447;-46
2021/12/28 02:17:40;;;;;;;17.60;16.90;;;23.00;50.20;;;;;;5052268;28;20583;-48
2021/12/28 02:20:10;;;;;;;17.70;16.90;;;22.90;50.30;;;;;;5041085;28;20453;-48
2021/12/28 02:22:37;;;;;;;17.83;16.93;;;22.90;50.40;;;;;;5032362;28;20445;-48
2021/12/28 02:25:05;;;;;;;17.20;16.40;;;22.90;50.50;;;;;;5032314;28;20441;-48
2021/12/28 02:27:32;;;;;;;17.53;16.67;;;22.90;50.50;;;;;;5032356;28;20828;-48
2021/12/28 02:29:58;;;;;;;17.80;16.80;;;22.80;50.50;;;;;;5031808;28;20481;-49
2021/12/28 02:32:28;;;;;;;17.67;16.77;;;22.80;50.60;;;;;;5031660;28;20487;-48
2021/12/28 02:34:55;;;;;;;17.37;16.37;;;22.80;50.60;;;;;;5032144;28;20546;-48
2021/12/28 02:37:24;;;;;;;18.10;17.23;;;22.80;50.80;;;;;;5032052;28;20495;-48
2021/12/28 02:39:52;;;;;;;17.00;16.20;;;23.00;50.70;;;;;;5031847;28;20449;-48
2021/12/28 02:42:19;;;;;;;17.70;16.90;;;23.10;50.40;;;;;;5031852;28;20824;-52
2021/12/28 02:44:46;;;;;;;18.33;17.43;;;23.10;50.20;;;;;;5031900;28;20938;-48
2021/12/28 02:47:17;;;;;;;17.90;17.00;;;23.10;50.60;;;;;;5031810;28;20473;-50
2021/12/28 02:49:44;;;;;;;17.47;16.57;;;23.10;50.10;;;;;;5031573;28;20484;-49
2021/12/28 02:52:10;;;;;;;16.93;16.23;;;23.10;50.10;;;;;;5031269;28;20441;-49
2021/12/28 02:54:39;;;;;;;17.77;16.93;;;23.10;50.00;;;;;;5031754;28;20453;-49
2021/12/28 02:57:07;;;;;;;17.43;16.40;;;23.10;50.00;;;;;;5031951;28;20504;-49
2021/12/28 02:59:34;;;;;;;17.20;16.50;;;23.00;50.10;;;;;;5030754;28;20451;-49
2021/12/28 03:02:00;;;;;;;17.20;16.23;;;22.90;50.00;;;;;;5031609;28;20507;-55
2021/12/28 03:04:27;;;;;;;18.00;17.00;;;22.90;50.10;;;;;;5031560;28;20452;-53
2021/12/28 03:06:54;;;;;;;17.67;16.87;;;22.90;50.20;;;;;;5031468;28;20464;-53
2021/12/28 03:09:21;;;;;;;17.10;16.40;;;22.90;50.30;;;;;;5031332;28;20453;-54
2021/12/28 03:11:49;;;;;;;17.40;16.70;;;23.00;50.50;;;;;;5031261;28;20489;-51
2021/12/28 03:14:16;;;;;;;16.97;16.37;;;23.10;50.20;;;;;;5031479;28;20456;-49
2021/12/28 03:16:43;;;;;;;17.50;16.70;;;23.20;50.00;;;;;;5031535;28;20455;-49
2021/12/28 03:19:09;;;;;;;17.10;16.20;;;23.20;50.40;;;;;;5031188;28;20880;-49
2021/12/28 03:21:38;;;;;;;16.87;16.20;;;23.10;49.80;;;;;;5031303;28;20499;-49
2021/12/28 03:24:06;;;;;;;17.27;16.33;;;23.10;49.90;;;;;;5031321;28;20489;-53
2021/12/28 03:26:33;;;;;;;17.07;16.37;;;23.10;49.80;;;;;;5031403;28;20452;-48
2021/12/28 03:29:01;;;;;;;17.80;16.97;;;23.10;49.90;;;;;;5031133;28;20495;-50
2021/12/28 03:31:28;;;;;;;16.47;15.70;;;23.00;49.90;;;;;;5011520;28;20486;-49
2021/12/28 03:33:56;;;;;;;17.60;16.70;;;23.00;50.00;;;;;;5011610;28;20449;-48
2021/12/28 03:36:24;;;;;;;17.23;16.33;;;23.00;50.00;;;;;;5011695;28;20450;-50
2021/12/28 03:38:51;;;;;;;17.07;16.30;;;22.90;50.10;;;;;;5011495;28;20465;-51
2021/12/28 03:41:21;;;;;;;16.97;16.27;;;23.00;50.20;;;;;;5030262;28;20452;-49
2021/12/28 03:43:51;;;;;;;16.20;15.50;;;23.10;50.20;;;;;;5031020;28;20475;-51
2021/12/28 03:46:20;;;;;;;17.77;17.07;;;23.20;49.90;;;;;;5031347;28;20437;-48
2021/12/28 03:48:47;;;;;;;17.27;16.57;;;23.20;49.70;;;;;;5031128;28;20468;-53
2021/12/28 03:51:14;;;;;;;17.83;17.13;;;23.20;49.60;;;;;;5030837;28;20476;-51
2021/12/28 03:53:41;;;;;;;17.53;16.70;;;23.20;49.60;;;;;;5030682;28;20452;-50
2021/12/28 03:56:10;;;;;;;16.60;16.00;;;23.40;49.80;;;;;;5031136;28;20464;-48
2021/12/28 03:58:38;;;;;;;17.23;16.53;;;23.60;49.50;;;;;;5030993;28;20465;-49
2021/12/28 04:01:05;;;;;;;17.40;16.70;;;23.80;49.20;;;;;;5031033;28;20441;-50
2021/12/28 04:03:33;;;;;;;17.90;17.00;;;24.00;48.90;;;;;;5030954;28;20825;-52
2021/12/28 04:06:07;;;;;;;18.17;17.37;;;24.20;48.50;;;;;;5031048;28;20449;-49
2021/12/28 04:08:34;;;;;;;17.83;17.03;;;24.40;48.10;;;;;;5030894;28;20842;-51
2021/12/28 04:11:13;;;;;;;17.53;16.63;;;24.40;47.70;;;;;;5033943;28;20485;-50
2021/12/28 04:13:40;;;;;;;18.10;17.30;;;24.40;47.60;;;;;;5034673;28;20455;-50
2021/12/28 04:16:07;;;;;;;17.40;16.70;;;24.40;47.60;;;;;;5034662;28;20453;-50
2021/12/28 04:18:35;;;;;;;16.97;16.27;;;24.40;47.50;;;;;;5034548;28;20483;-51
2021/12/28 04:21:02;;;;;;;16.40;15.80;;;24.40;47.40;;;;;;5034381;28;20807;-49
2021/12/28 04:23:29;;;;;;;17.93;17.13;;;24.40;47.40;;;;;;5034288;28;20448;-48
2021/12/28 04:25:56;;;;;;;17.07;16.37;;;24.40;47.40;;;;;;5034525;28;20445;-51
2021/12/28 04:28:22;;;;;;;16.20;15.60;;;24.30;47.40;;;;;;5034390;28;20538;-48
2021/12/28 04:30:49;;;;;;;16.63;15.93;;;24.40;47.60;;;;;;5034097;28;20476;-48
2021/12/28 04:33:16;;;;;;;16.83;16.03;;;24.50;47.50;;;;;;5034169;28;20441;-48
2021/12/28 04:35:44;;;;;;;17.40;16.60;;;24.70;47.50;;;;;;5034351;28;20444;-48
2021/12/28 04:38:10;;;;;;;16.87;16.17;;;24.90;47.20;;;;;;5033885;28;20468;-48
2021/12/28 04:40:37;;;;;;;17.00;16.30;;;25.00;46.80;;;;;;5034209;28;20453;-48
2021/12/28 04:43:04;;;;;;;16.90;16.30;;;24.90;46.60;;;;;;5033989;28;20449;-48
2021/12/28 04:45:31;;;;;;;17.83;16.90;;;24.90;46.70;;;;;;5034052;28;20858;-48
2021/12/28 04:47:57;;;;;;;16.63;15.93;;;24.90;46.60;;;;;;5033830;28;20465;-48
2021/12/28 04:50:24;;;;;;;18.20;17.40;;;24.90;46.60;;;;;;5034005;28;20500;-48
2021/12/28 04:52:53;;;;;;;16.93;16.20;;;24.80;46.60;;;;;;5033667;28;21022;-48
2021/12/28 04:55:20;;;;;;;16.10;15.50;;;24.70;46.60;;;;;;5033951;28;20453;-48
2021/12/28 04:57:47;;;;;;;17.27;16.57;;;24.80;46.80;;;;;;5033526;28;20476;-48
2021/12/28 05:00:17;;;;;;;16.70;16.10;;;24.80;46.80;;;;;;5033695;28;20452;-50
2021/12/28 05:02:43;;;;;;;16.93;16.33;;;24.90;46.80;;;;;;5033649;28;20445;-47
2021/12/28 05:05:11;;;;;;;18.03;17.30;;;25.00;46.40;;;;;;5033749;28;21453;-46
2021/12/28 05:07:38;;;;;;;16.90;16.30;;;25.10;46.20;;;;;;5033174;28;20882;-48
2021/12/28 05:10:07;;;;;;;17.37;16.77;;;25.10;46.10;;;;;;5033650;28;20456;-46
2021/12/28 05:12:34;;;;;;;17.20;16.50;;;25.00;46.10;;;;;;5033374;28;20449;-49
2021/12/28 05:15:00;;;;;;;17.23;16.63;;;25.00;46.10;;;;;;5033624;28;20753;-47
2021/12/28 05:17:28;;;;;;;17.50;16.90;;;25.00;46.10;;;;;;5033438;28;20472;-48
2021/12/28 05:19:55;;;;;;;17.30;16.50;;;24.90;46.70;;;;;;5032844;28;20797;-48
2021/12/28 05:22:22;;;;;;;17.57;16.87;;;25.00;46.40;;;;;;5032589;28;20452;-47
2021/12/28 05:24:48;;;;;;;17.13;16.43;;;25.10;46.30;;;;;;5033356;28;20807;-48
2021/12/28 05:27:17;;;;;;;17.50;16.90;;;25.30;46.20;;;;;;5033319;28;20954;-48
2021/12/28 05:29:44;;;;;;;17.53;16.83;;;25.40;45.90;;;;;;5033126;28;20973;-49
2021/12/28 05:32:11;;;;;;;17.40;16.67;;;25.40;45.70;;;;;;5033085;28;20831;-46
2021/12/28 05:34:37;;;;;;;16.20;15.50;;;25.40;45.70;;;;;;5033239;28;20445;-52
2021/12/28 05:37:04;;;;;;;17.27;16.57;;;25.30;45.70;;;;;;5033263;28;20468;-51
2021/12/28 05:39:31;;;;;;;17.23;16.63;;;25.30;45.60;;;;;;5032877;28;20449;-54
2021/12/28 05:41:58;;;;;;;17.30;16.70;;;25.30;45.70;;;;;;5032936;28;20445;-52
2021/12/28 05:44:26;;;;;;;16.90;16.20;;;25.20;45.70;;;;;;5032990;28;20452;-50
2021/12/28 05:46:54;;;;;;;16.50;15.80;;;25.20;45.80;;;;;;5033118;28;20453;-52
2021/12/28 05:49:20;;;;;;;16.80;16.20;;;25.20;45.90;;;;;;5032519;28;20459;-53
2021/12/28 05:51:47;;;;;;;16.50;15.80;;;25.20;45.80;;;;;;5032673;28;20488;-50
2021/12/28 05:54:14;;;;;;;16.80;16.20;;;25.10;45.80;;;;;;5032933;28;20444;-51
2021/12/28 05:56:41;;;;;;;17.63;16.93;;;25.00;45.90;;;;;;5032872;28;20449;-51
2021/12/28 05:59:08;;;;;;;16.83;16.23;;;25.00;45.90;;;;;;5032325;28;20492;-54
2021/12/28 06:01:36;;;;;;;17.30;16.60;;;25.00;46.00;;;;;;5032495;28;20449;-51
2021/12/28 06:04:03;;;;;;;17.70;17.00;;;24.90;46.00;;;;;;5032589;28;20813;-47
2021/12/28 06:06:29;;;;;;;17.43;16.73;;;24.90;46.20;;;;;;5032398;28;20445;-50
2021/12/28 06:08:56;;;;;;;17.00;16.30;;;24.80;46.30;;;;;;5032418;28;20480;-49
2021/12/28 06:11:23;;;;;;;17.03;16.43;;;24.70;46.40;;;;;;5032417;28;21038;-49
2021/12/28 06:13:50;;;;;;;17.67;16.97;;;24.60;46.40;;;;;;5032171;28;20536;-48
2021/12/28 06:16:16;;;;;;;16.90;16.10;;;24.50;46.50;;;;;;5032200;28;20445;-49
2021/12/28 06:18:45;;;;;;;18.27;17.37;;;24.50;46.60;;;;;;5032345;28;20543;-51
2021/12/28 06:21:11;;;;;;;16.77;16.10;;;24.40;46.80;;;;;;5032509;28;20846;-49
2021/12/28 06:23:38;;;;;;;16.60;16.00;;;24.30;46.90;;;;;;5032189;28;20452;-50
2021/12/28 06:26:05;;;;;;;16.13;15.53;;;24.20;46.90;;;;;;5032238;28;20449;-47
2021/12/28 06:28:32;;;;;;;16.53;15.83;;;24.20;47.10;;;;;;5032017;28;20476;-50
2021/12/28 06:30:59;;;;;;;16.80;16.20;;;24.10;47.20;;;;;;5032019;28;20485;-46
2021/12/28 06:33:26;;;;;;;17.10;16.40;;;24.10;47.30;;;;;;5031827;28;21181;-50
2021/12/28 06:35:55;;;;;;;16.60;15.90;;;24.00;47.40;;;;;;5032012;28;20445;-47
2021/12/28 06:38:22;;;;;;;16.63;15.97;;;23.90;47.40;;;;;;5031636;28;20497;-48
2021/12/28 06:40:49;;;;;;;16.33;15.73;;;23.90;47.60;;;;;;5032031;28;20449;-47
2021/12/28 06:43:16;;;;;;;16.40;15.80;;;23.80;47.70;;;;;;5031691;28;20445;-47
2021/12/28 06:45:43;;;;;;;16.90;16.20;;;23.70;47.70;;;;;;5031563;28;20446;-49
2021/12/28 06:48:10;;;;;;;16.13;15.53;;;23.70;47.80;;;;;;5031716;28;20465;-46
2021/12/28 06:50:37;;;;;;;16.03;15.40;;;23.60;48.00;;;;;;5031701;28;20456;-46
2021/12/28 06:53:05;;;;;;;16.57;15.83;;;23.50;48.10;;;;;;5031550;28;20460;-48
2021/12/28 06:55:31;;;;;;;16.53;15.93;;;23.50;48.20;;;;;;5031557;28;20457;-47
2021/12/28 06:57:58;;;;;;;16.77;16.17;;;23.40;48.30;;;;;;5031763;28;20469;-46
2021/12/28 07:00:25;;;;;;;16.43;15.83;;;23.40;48.40;;;;;;5031662;28;20449;-47
2021/12/28 07:02:52;;;;;;;17.27;16.57;;;23.20;48.40;;;;;;5031411;28;20990;-51
2021/12/28 07:05:18;;;;;;;16.43;15.77;;;23.10;48.70;;;;;;5031439;28;20510;-48
2021/12/28 07:07:45;;;;;;;17.13;16.47;;;23.10;48.90;;;;;;5031589;28;20473;-48
2021/12/28 07:10:13;;;;;;;16.83;16.13;;;23.00;48.90;;;;;;5031544;28;20449;-50
2021/12/28 07:12:41;;;;;;;17.03;16.33;;;23.00;49.10;;;;;;5031270;28;20480;-51
2021/12/28 07:15:08;;;;;;;16.80;16.10;;;22.90;49.20;;;;;;5031264;28;20465;-48
2021/12/28 07:17:35;;;;;;;15.70;15.20;;;22.80;49.30;;;;;;5031316;28;20465;-48
2021/12/28 07:20:02;;;;;;;15.73;15.10;;;22.70;49.50;;;;;;5031608;28;20445;-49
2021/12/28 07:22:28;;;;;;;15.30;14.80;;;22.70;49.60;;;;;;5031262;28;20448;-50
2021/12/28 07:24:55;;;;;;;16.63;16.03;;;22.60;49.60;;;;;;5031460;28;20449;-48
2021/12/28 07:27:23;;;;;;;16.90;16.10;;;22.60;49.90;;;;;;5031303;28;20468;-48
2021/12/28 07:29:50;;;;;;;15.03;14.53;;;22.60;50.00;;;;;;5031458;28;20643;-49
2021/12/28 07:32:16;;;;;;;15.47;14.87;;;22.50;50.10;;;;;;5031097;28;20912;-49
2021/12/28 07:34:43;;;;;;;15.17;14.67;;;22.50;50.20;;;;;;5031221;28;20445;-48
2021/12/28 07:37:10;;;;;;;14.43;13.93;;;22.40;50.20;;;;;;5031206;28;20540;-50
2021/12/28 07:39:37;;;;;;;14.90;14.40;;;22.40;50.30;;;;;;5031296;28;20472;-50
2021/12/28 07:42:04;;;;;;;15.33;14.73;;;22.30;50.40;;;;;;5031264;28;20445;-48
2021/12/28 07:44:32;;;;;;;14.17;13.73;;;22.20;50.50;;;;;;5032045;28;20814;-51
2021/12/28 07:46:59;;;;;;;13.57;13.17;;;22.20;50.70;;;;;;5035205;28;20445;-48
2021/12/28 07:49:26;;;;;;;14.87;14.27;;;22.20;50.80;;;;;;5035263;28;20460;-48
2021/12/28 07:51:52;;;;;;;14.57;14.07;;;22.10;50.80;;;;;;5034860;28;20491;-49
2021/12/28 07:54:19;;;;;;;15.03;14.43;;;22.10;51.00;;;;;;5034725;28;20445;-48
2021/12/28 07:56:46;;;;;;;14.13;13.73;;;22.10;51.00;;;;;;5034997;28;20870;-49
2021/12/28 07:59:13;;;;;;;14.93;14.37;;;22.10;51.10;;;;;;5034978;28;20953;-48
2021/12/28 08:01:41;;;;;;;15.70;15.20;;;22.00;51.20;;;;;;5034666;28;20815;-48
2021/12/28 08:04:08;;;;;;;14.13;13.73;;;22.00;51.30;;;;;;5034568;28;20444;-48
2021/12/28 08:06:34;;;;;;;14.97;14.37;;;21.90;51.30;;;;;;5034776;28;20453;-48
2021/12/28 08:09:01;;;;;;;14.63;14.13;;;21.90;51.70;;;;;;5035237;28;20500;-51
2021/12/28 08:11:29;;;;;;;14.70;14.10;;;21.90;52.00;;;;;;5034695;28;20480;-52
2021/12/28 08:13:56;;;;;;;14.30;13.80;;;21.80;52.20;;;;;;5034541;28;20445;-51
2021/12/28 08:16:24;;;;;;;14.13;13.63;;;21.80;52.50;;;;;;5034668;28;20453;-50
2021/12/28 08:18:52;;;;;;;14.90;14.30;;;21.70;52.70;;;;;;5034537;28;20496;-49
2021/12/28 08:21:19;;;;;;;15.03;14.23;;;21.70;53.00;;;;;;5034532;28;20449;-48
2021/12/28 08:23:46;;;;;;;15.53;14.93;;;21.60;53.20;;;;;;5033963;28;20453;-48
2021/12/28 08:26:16;;;;;;;14.33;13.83;;;21.60;53.70;;;;;;5034700;28;20816;-51
2021/12/28 08:28:43;;;;;;;14.23;13.63;;;21.50;54.40;;;;;;5034645;28;20465;-51
2021/12/28 08:31:10;;;;;;;14.63;14.03;;;21.50;54.40;;;;;;5034464;28;20448;-49
2021/12/28 08:33:37;;;;;;;13.20;12.70;;;21.40;54.80;;;;;;5034214;28;20452;-50
2021/12/28 08:36:06;;;;;;;14.00;13.50;;;21.30;55.20;;;;;;5034441;28;20448;-54
2021/12/28 08:38:32;;;;;;;13.80;13.23;;;21.30;55.60;;;;;;5034397;28;20465;-48
2021/12/28 08:41:00;;;;;;;14.43;13.80;;;21.30;56.10;;;;;;5034395;28;20814;-48
2021/12/28 08:43:27;;;;;;;14.87;14.37;;;21.20;56.40;;;;;;5033974;28;20942;-48
2021/12/28 08:45:54;;;;;;;14.40;13.77;;;21.10;56.70;;;;;;5034079;28;20839;-48
2021/12/28 08:48:21;;;;;;;14.90;14.30;;;21.10;57.40;;;;;;5033830;28;20476;-50
2021/12/28 08:50:48;;;;;;;14.13;13.50;;;21.10;58.00;;;;;;5034156;28;20812;-48
2021/12/28 08:53:16;;;;;;;14.60;13.90;;;21.00;58.20;;;;;;5033908;28;20477;-52
2021/12/28 08:55:43;;;;;;;15.27;14.67;;;21.00;58.70;;;;;;5033297;28;20818;-50
2021/12/28 08:58:10;;;;;;;14.10;13.60;;;21.00;59.20;;;;;;5033114;28;21073;-48
2021/12/28 09:00:38;;;;;;;14.13;13.57;;;20.90;59.70;;;;;;5033574;28;20958;-49
2021/12/28 09:03:05;;;;;;;14.87;14.27;;;20.90;60.10;;;;;;5032985;28;20448;-48
2021/12/28 09:05:32;;;;;;;14.67;14.00;;;20.80;60.70;;;;;;5033966;28;20904;-51
2021/12/28 09:08:00;;;;;;;14.20;13.73;;;20.80;61.30;;;;;;5033608;28;20473;-49
2021/12/28 09:10:30;;;;;;;14.20;13.50;;;20.80;62.00;;;;;;5033574;28;20450;-49
2021/12/28 09:12:56;;;;;;;13.83;13.23;;;20.70;62.40;;;;;;5033187;28;20481;-49
2021/12/28 09:15:24;;;;;;;14.10;13.70;;;20.70;63.10;;;;;;5033430;28;20441;-53
2021/12/28 09:17:52;;;;;;;14.03;13.53;;;20.70;63.50;;;;;;5033557;28;20476;-52
2021/12/28 09:20:22;;;;;;;14.37;13.87;;;20.70;64.00;;;;;;5033809;28;20492;-52
2021/12/28 09:22:51;;;;;;;14.23;13.73;;;20.70;64.30;;;;;;5033053;28;20441;-52
2021/12/28 09:25:19;;;;;;;15.90;15.30;;;20.60;64.60;;;;;;5033466;28;20445;-51
2021/12/28 09:27:47;;;;;;;13.73;13.33;;;20.60;64.90;;;;;;5033487;28;20491;-50
2021/12/28 09:30:15;;;;;;;13.90;13.40;;;20.60;65.30;;;;;;5033426;28;20449;-49
2021/12/28 09:32:41;;;;;;;13.47;12.97;;;20.60;65.60;;;;;;5032769;28;20505;-50
2021/12/28 09:35:13;;;;;;;14.27;13.77;;;20.50;65.60;;;;;;5033230;28;20441;-49
2021/12/28 09:37:40;;;;;;;14.10;13.60;;;20.50;65.90;;;;;;5033045;28;20468;-51
2021/12/28 09:40:10;;;;;;;13.80;13.30;;;20.50;66.00;;;;;;5033032;28;20457;-48
2021/12/28 09:42:38;;;;;;;13.30;12.90;;;20.50;66.00;;;;;;5033189;28;20444;-49
2021/12/28 09:45:08;;;;;;;13.70;13.20;;;20.50;66.70;;;;;;5032747;28;20445;-48
2021/12/28 09:47:35;;;;;;;15.30;14.60;;;20.40;65.90;;;;;;5032897;28;20881;-48
2021/12/28 09:50:02;;;;;;;12.20;11.80;;;20.40;66.70;;;;;;5025431;28;20530;-50
2021/12/28 09:52:29;;;;;;;13.70;13.20;;;20.40;66.60;;;;;;5020907;28;20230;-47
2021/12/28 09:54:56;;;;;;;14.27;13.77;;;20.50;66.80;;;;;;5020954;28;20503;-52
2021/12/28 09:57:22;;;;;;;14.30;13.80;;;20.50;66.70;;;;;;5020784;28;20473;-51
2021/12/28 09:59:49;;;;;;;13.60;13.20;;;20.50;67.30;;;;;;5020868;28;20449;-50
2021/12/28 10:02:18;;;;;;;14.20;13.67;;;20.40;67.20;;;;;;5020621;28;20449;-48
2021/12/28 10:04:58;;;;;;;13.57;13.07;;;20.40;67.40;;;;;;5020854;28;21005;-49
2021/12/28 10:07:27;;;;;;;13.90;13.30;;;20.40;67.70;;;;;;5020374;28;20542;-47
2021/12/28 10:09:54;;;;;;;13.93;13.43;;;20.40;67.90;;;;;;5020567;28;20452;-49
2021/12/28 10:12:30;;;;;;;14.23;13.67;;;20.30;68.40;;;;;;5020337;28;20489;-47
2021/12/28 10:15:00;;;;;;;14.23;13.77;;;20.30;68.50;;;;;;5020565;28;20529;-49
2021/12/28 10:17:30;;;;;;;13.53;13.00;;;20.30;68.40;;;;;;5020772;28;20476;-53
2021/12/28 10:19:57;;;;;;;13.57;13.10;;;20.30;68.60;;;;;;5020506;28;20460;-50
2021/12/28 10:22:32;;;;;;;14.27;13.70;;;20.30;68.80;;;;;;5020516;28;20453;-47
2021/12/28 10:25:01;;;;;;;14.30;13.90;;;20.30;68.80;;;;;;5020901;28;20783;-49
2021/12/28 10:27:30;;;;;;;14.70;14.30;;;20.30;69.20;;;;;;5020703;28;20480;-49
2021/12/28 10:30:05;;;;;;;13.90;13.40;;;20.30;69.30;;;;;;5020670;28;20457;-51
2021/12/28 10:32:34;;;;;;;12.20;11.80;;;20.20;69.50;;;;;;5019086;28;20453;-49
2021/12/28 10:35:04;;;;;;;14.70;14.00;;;20.30;69.90;;;;;;5020377;28;20313;-50
2021/12/28 10:37:32;;;;;;;13.50;13.10;;;20.30;69.60;;;;;;5020140;28;20472;-50
2021/12/28 10:40:01;;;;;;;13.70;13.30;;;20.40;70.20;;;;;;5020531;28;21056;-51
2021/12/28 10:42:51;;;;;;;13.50;13.10;;;20.40;70.10;;;;;;5020302;28;20448;-47
2021/12/28 10:45:21;;;;;;;12.38;11.98;;;20.80;70.50;;;;;;5020203;28;20823;-50
2021/12/28 10:47:51;;;;;;;13.73;13.33;;;21.10;69.60;;;;;;5020891;28;20261;-51
2021/12/28 10:50:26;;;;;;;13.87;13.43;;;21.30;68.50;;;;;;5020116;28;20456;-51
2021/12/28 10:53:06;;;;;;;13.70;13.10;;;21.80;67.60;;;;;;5019804;28;20488;-50
2021/12/28 10:55:33;;;;;;;13.70;13.20;;;22.20;66.40;;;;;;5020267;28;20464;-50
2021/12/28 10:58:02;;;;;;;14.10;13.60;;;22.40;64.60;;;;;;5019862;28;20573;-48
2021/12/28 11:00:31;;;;;;;15.70;15.15;;;22.70;63.00;;;;;;5019455;28;20453;-50
2021/12/28 11:03:34;;;;;;;12.83;12.43;;;23.00;62.20;;;;;;5018586;28;20514;-47
2021/12/28 11:06:08;;;;;;;13.70;13.30;;;23.10;61.50;;;;;;5019936;28;20457;-49
2021/12/28 11:08:35;;;;;;;13.53;13.13;;;23.30;59.60;;;;;;5019536;28;20477;-49
2021/12/28 11:11:05;;;;;;;13.80;13.40;;;23.40;58.90;;;;;;5018743;28;20445;-49
2021/12/28 11:13:36;;;;;;;12.98;12.57;;;23.50;58.60;;;;;;5011315;28;20453;-50
2021/12/28 11:16:04;;;;;;;12.80;12.40;;;23.30;58.40;;;;;;5018643;28;20599;-49
2021/12/28 11:18:34;;;;;;;14.67;14.17;;;23.40;58.60;;;;;;5019412;28;20237;-49
2021/12/28 11:21:11;;;;;;;13.35;12.95;;;23.40;58.30;;;;;;5019265;28;20452;-48
2021/12/28 11:23:38;;;;;;;14.37;13.87;;;23.70;58.00;;;;;;5018442;28;20198;-51
2021/12/28 11:26:10;;;;;;;15.17;14.63;;;24.00;56.80;;;;;;5017742;28;20468;-48
2021/12/28 11:28:38;;;;;;;14.70;14.07;;;24.20;57.80;;;;;;5019423;28;20473;-47
2021/12/28 11:31:09;;;;;;;14.87;14.37;;;24.20;58.00;;;;;;5019372;28;20453;-47
2021/12/28 11:33:44;;;;;;;14.73;14.23;;;24.10;57.80;;;;;;5018549;28;20477;-48
2021/12/28 11:36:13;;;;;;;14.97;14.27;;;24.10;57.50;;;;;;5019404;28;20452;-47
2021/12/28 11:38:40;;;;;;;14.50;14.10;;;24.10;57.30;;;;;;5019297;28;20472;-49
2021/12/28 11:41:07;;;;;;;14.73;14.23;;;24.10;57.10;;;;;;5019527;28;20441;-47
2021/12/28 11:43:35;;;;;;;14.37;13.97;;;24.10;56.80;;;;;;5018689;28;20441;-46
2021/12/28 11:46:02;;;;;;;14.53;13.93;;;24.20;56.60;;;;;;5019557;28;20870;-48
2021/12/28 11:48:29;;;;;;;14.40;13.90;;;24.40;56.30;;;;;;5019219;28;20878;-45
2021/12/28 11:50:57;;;;;;;14.67;14.27;;;24.50;55.50;;;;;;5019531;28;20943;-49
2021/12/28 11:53:26;;;;;;;14.80;14.40;;;24.50;55.10;;;;;;5018686;28;20530;-47
2021/12/28 11:55:55;;;;;;;14.33;13.93;;;24.50;54.90;;;;;;5019321;28;21246;-46
2021/12/28 11:58:52;;;;;;;14.10;13.60;;;24.50;55.00;;;;;;5019136;28;20889;-48
2021/12/28 12:01:47;;;;;;;14.00;13.50;;;24.40;54.60;;;;;;5018702;28;20455;-47
2021/12/28 12:04:56;;;;;;;14.03;13.63;;;24.50;55.20;;;;;;4984002;28;20453;-47
2021/12/28 12:07:31;;;;;;;13.13;12.53;;;24.50;55.50;;;;;;5017826;28;20464;-46
2021/12/28 12:10:30;;;;;;;14.93;14.53;;;24.60;55.40;;;;;;5019124;28;20451;-50
2021/12/28 12:13:14;;;;;;;14.90;14.40;;;24.90;55.30;;;;;;5013845;28;21111;-48
2021/12/28 12:15:42;;;;;;;14.90;14.40;;;25.20;54.60;;;;;;5019327;28;20550;-45
2021/12/28 12:18:13;;;;;;;15.00;14.50;;;25.30;54.00;;;;;;5019303;28;20555;-44
2021/12/28 12:20:49;;;;;;;14.87;14.47;;;25.20;53.80;;;;;;5019052;28;20448;-46
2021/12/28 12:23:26;;;;;;;13.90;13.50;;;25.30;53.80;;;;;;5018451;28;21335;-45
2021/12/28 12:26:01;;;;;;;14.87;14.37;;;25.30;54.10;;;;;;5018843;28;21046;-44
2021/12/28 12:28:36;;;;;;;13.90;13.50;;;25.30;53.50;;;;;;5019055;28;21119;-48
2021/12/28 12:31:05;;;;;;;14.27;13.77;;;25.30;53.40;;;;;;5020537;28;20448;-47
2021/12/28 12:33:43;;;;;;;14.77;14.37;;;25.20;53.00;;;;;;5022190;28;20519;-46
2021/12/28 12:36:19;;;;;;;14.40;13.80;;;25.30;53.30;;;;;;5022376;28;20491;-45